sensor_id;sensor_type;location;lat;lon;timestamp;P1;durP1;ratioP1;P2;durP2;ratioP2
1777;SDS011;71547;50.146;8.174;2023-10-13T15:05:37;7.73;;;5.40;;
1777;SDS011;71547;50.146;8.174;2023-10-13T15:08:05;6.27;;;5.17;;
1777;SDS011;71547;50.146;8.174;2023-10-13T15:10:33;6.23;;;5.70;;
1777;SDS011;71547;50.146;8.174;2023-10-13T15:13:03;7.90;;;5.57;;
1777;SDS011;71547;50.146;8.174;2023-10-13T15:15:31;7.20;;;5.27;;
1777;SDS011;71547;50.146;8.174;2023-10-13T15:18:02;5.77;;;5.17;;
1777;SDS011;71547;50.146;8.174;2023-10-13T15:20:30;11.83;;;5.63;;
1777;SDS011;71547;50.146;8.174;2023-10-13T15:22:59;5.13;;;4.73;;
1777;SDS011;71547;50.146;8.174;2023-10-13T15:25:26;8.87;;;6.43;;
1777;SDS011;71547;50.146;8.174;2023-10-13T15:28:05;7.10;;;5.47;;
1777;SDS011;71547;50.146;8.174;2023-10-13T15:30:36;10.67;;;6.03;;
1777;SDS011;71547;50.146;8.174;2023-10-13T15:33:22;6.80;;;5.20;;
1777;SDS011;71547;50.146;8.174;2023-10-13T15:35:52;10.60;;;5.13;;
1777;SDS011;71547;50.146;8.174;2023-10-13T15:38:21;10.07;;;5.17;;
1777;SDS011;71547;50.146;8.174;2023-10-13T15:40:51;5.40;;;4.90;;
1777;SDS011;71547;50.146;8.174;2023-10-13T15:43:21;10.47;;;5.47;;
1777;SDS011;71547;50.146;8.174;2023-10-13T15:45:49;6.60;;;4.80;;
1777;SDS011;71547;50.146;8.174;2023-10-13T15:48:17;8.33;;;5.33;;
1777;SDS011;71547;50.146;8.174;2023-10-13T15:50:51;5.33;;;4.83;;
1777;SDS011;71547;50.146;8.174;2023-10-13T15:53:18;7.33;;;5.40;;
1777;SDS011;71547;50.146;8.174;2023-10-13T15:55:47;5.93;;;4.60;;
1777;SDS011;71547;50.146;8.174;2023-10-13T15:58:14;8.63;;;5.53;;
1777;SDS011;71547;50.146;8.174;2023-10-13T16:00:42;6.17;;;5.37;;
1777;SDS011;71547;50.146;8.174;2023-10-13T16:03:11;5.97;;;5.43;;
1777;SDS011;71547;50.146;8.174;2023-10-13T16:05:39;6.17;;;5.30;;
1777;SDS011;71547;50.146;8.174;2023-10-13T16:08:09;6.87;;;4.80;;
1777;SDS011;71547;50.146;8.174;2023-10-13T16:10:41;6.63;;;4.60;;
1777;SDS011;71547;50.146;8.174;2023-10-13T16:13:10;5.77;;;5.17;;
1777;SDS011;71547;50.146;8.174;2023-10-13T16:15:46;10.77;;;5.70;;
1777;SDS011;71547;50.146;8.174;2023-10-13T16:18:14;5.90;;;5.23;;
1777;SDS011;71547;50.146;8.174;2023-10-13T16:20:49;10.17;;;5.47;;
1777;SDS011;71547;50.146;8.174;2023-10-13T16:23:17;8.63;;;5.10;;
1777;SDS011;71547;50.146;8.174;2023-10-13T16:25:46;6.43;;;5.00;;
1777;SDS011;71547;50.146;8.174;2023-10-13T16:28:15;5.60;;;4.47;;
1777;SDS011;71547;50.146;8.174;2023-10-13T16:30:44;6.50;;;4.87;;
1777;SDS011;71547;50.146;8.174;2023-10-13T16:33:11;6.70;;;6.00;;
1777;SDS011;71547;50.146;8.174;2023-10-13T16:35:41;7.27;;;4.80;;
1777;SDS011;71547;50.146;8.174;2023-10-13T16:38:13;6.13;;;4.60;;
1777;SDS011;71547;50.146;8.174;2023-10-13T16:40:40;5.13;;;4.37;;
1777;SDS011;71547;50.146;8.174;2023-10-13T16:43:10;6.23;;;4.80;;
1777;SDS011;71547;50.146;8.174;2023-10-13T16:45:39;4.80;;;4.40;;
1777;SDS011;71547;50.146;8.174;2023-10-13T16:48:11;7.80;;;4.30;;
1777;SDS011;71547;50.146;8.174;2023-10-13T16:50:42;9.73;;;5.10;;
1777;SDS011;71547;50.146;8.174;2023-10-13T16:53:10;11.27;;;4.80;;
1777;SDS011;71547;50.146;8.174;2023-10-13T16:55:37;7.23;;;5.00;;
1777;SDS011;71547;50.146;8.174;2023-10-13T16:58:09;5.73;;;4.67;;
1777;SDS011;71547;50.146;8.174;2023-10-13T17:00:39;6.47;;;5.17;;
1777;SDS011;71547;50.146;8.174;2023-10-13T17:03:11;6.53;;;4.57;;
1777;SDS011;71547;50.146;8.174;2023-10-13T17:05:41;9.67;;;4.80;;
1777;SDS011;71547;50.146;8.174;2023-10-13T17:08:09;7.17;;;4.47;;
1777;SDS011;71547;50.146;8.174;2023-10-13T17:10:36;4.93;;;4.50;;
1777;SDS011;71547;50.146;8.174;2023-10-13T17:13:04;5.43;;;4.47;;
1777;SDS011;71547;50.146;8.174;2023-10-13T17:15:34;8.70;;;5.30;;
1777;SDS011;71547;50.146;8.174;2023-10-13T17:18:03;7.03;;;4.90;;
1777;SDS011;71547;50.146;8.174;2023-10-13T17:20:33;7.00;;;5.57;;
1777;SDS011;71547;50.146;8.174;2023-10-13T17:23:01;5.43;;;4.53;;
1777;SDS011;71547;50.146;8.174;2023-10-13T17:25:30;9.67;;;5.47;;
1777;SDS011;71547;50.146;8.174;2023-10-13T17:27:59;10.70;;;4.77;;
1777;SDS011;71547;50.146;8.174;2023-10-13T17:30:46;6.10;;;4.30;;
1777;SDS011;71547;50.146;8.174;2023-10-13T17:33:22;7.10;;;4.53;;
1777;SDS011;71547;50.146;8.174;2023-10-13T17:35:51;10.17;;;4.87;;
1777;SDS011;71547;50.146;8.174;2023-10-13T17:38:19;12.63;;;4.70;;
1777;SDS011;71547;50.146;8.174;2023-10-13T17:40:46;5.40;;;4.23;;
1777;SDS011;71547;50.146;8.174;2023-10-13T17:43:14;5.17;;;4.63;;
1777;SDS011;71547;50.146;8.174;2023-10-13T17:45:42;6.43;;;4.50;;
1777;SDS011;71547;50.146;8.174;2023-10-13T17:48:12;5.53;;;4.83;;
1777;SDS011;71547;50.146;8.174;2023-10-13T17:50:39;10.33;;;4.70;;
1777;SDS011;71547;50.146;8.174;2023-10-13T17:53:07;5.30;;;4.30;;
1777;SDS011;71547;50.146;8.174;2023-10-13T17:55:36;9.33;;;4.90;;
1777;SDS011;71547;50.146;8.174;2023-10-13T17:58:05;8.10;;;4.40;;
1777;SDS011;71547;50.146;8.174;2023-10-13T18:00:32;4.30;;;3.90;;
1777;SDS011;71547;50.146;8.174;2023-10-13T18:03:01;6.47;;;4.40;;
1777;SDS011;71547;50.146;8.174;2023-10-13T18:05:31;7.43;;;4.50;;
1777;SDS011;71547;50.146;8.174;2023-10-13T18:08:01;9.53;;;4.77;;
1777;SDS011;71547;50.146;8.174;2023-10-13T18:10:29;5.47;;;4.10;;
1777;SDS011;71547;50.146;8.174;2023-10-13T18:12:57;8.87;;;4.40;;
1777;SDS011;71547;50.146;8.174;2023-10-13T18:15:24;5.73;;;4.27;;
1777;SDS011;71547;50.146;8.174;2023-10-13T18:17:55;8.10;;;3.47;;
1777;SDS011;71547;50.146;8.174;2023-10-13T18:20:23;4.03;;;3.63;;
1777;SDS011;71547;50.146;8.174;2023-10-13T18:22:53;5.73;;;4.40;;
1777;SDS011;71547;50.146;8.174;2023-10-13T18:25:21;3.83;;;3.53;;
1777;SDS011;71547;50.146;8.174;2023-10-13T18:27:50;5.20;;;4.13;;
1777;SDS011;71547;50.146;8.174;2023-10-13T18:30:18;5.07;;;3.97;;
1777;SDS011;71547;50.146;8.174;2023-10-13T18:32:48;10.23;;;3.87;;
1777;SDS011;71547;50.146;8.174;2023-10-13T18:35:23;10.47;;;4.33;;
1777;SDS011;71547;50.146;8.174;2023-10-13T18:38:02;5.80;;;3.50;;
1777;SDS011;71547;50.146;8.174;2023-10-13T18:40:31;6.37;;;4.10;;
1777;SDS011;71547;50.146;8.174;2023-10-13T18:43:03;10.13;;;3.70;;
1777;SDS011;71547;50.146;8.174;2023-10-13T18:45:30;10.97;;;4.37;;
1777;SDS011;71547;50.146;8.174;2023-10-13T18:47:59;5.93;;;3.90;;
1777;SDS011;71547;50.146;8.174;2023-10-13T18:50:28;4.37;;;3.97;;
1777;SDS011;71547;50.146;8.174;2023-10-13T18:52:56;6.30;;;4.17;;
1777;SDS011;71547;50.146;8.174;2023-10-13T18:55:25;8.83;;;4.20;;
1777;SDS011;71547;50.146;8.174;2023-10-13T18:57:53;6.83;;;4.00;;
1777;SDS011;71547;50.146;8.174;2023-10-13T19:00:21;4.40;;;3.80;;
1777;SDS011;71547;50.146;8.174;2023-10-13T19:02:49;4.43;;;3.47;;
1777;SDS011;71547;50.146;8.174;2023-10-13T19:05:17;4.80;;;3.97;;
1777;SDS011;71547;50.146;8.174;2023-10-13T19:07:47;4.97;;;3.53;;
1777;SDS011;71547;50.146;8.174;2023-10-13T19:10:17;4.03;;;3.60;;
1777;SDS011;71547;50.146;8.174;2023-10-13T19:12:46;5.70;;;4.60;;
1777;SDS011;71547;50.146;8.174;2023-10-13T19:15:16;7.33;;;3.67;;
1777;SDS011;71547;50.146;8.174;2023-10-13T19:17:44;6.83;;;4.03;;
1777;SDS011;71547;50.146;8.174;2023-10-13T19:20:12;4.97;;;4.40;;
1777;SDS011;71547;50.146;8.174;2023-10-13T19:22:43;7.20;;;3.87;;
1777;SDS011;71547;50.146;8.174;2023-10-13T19:25:20;6.20;;;3.53;;
1777;SDS011;71547;50.146;8.174;2023-10-13T19:27:52;7.97;;;3.77;;
1777;SDS011;71547;50.146;8.174;2023-10-13T19:30:20;4.43;;;3.37;;
1777;SDS011;71547;50.146;8.174;2023-10-13T19:32:47;3.70;;;3.20;;
1777;SDS011;71547;50.146;8.174;2023-10-13T19:35:17;5.23;;;3.50;;
1777;SDS011;71547;50.146;8.174;2023-10-13T19:37:48;4.17;;;3.87;;
1777;SDS011;71547;50.146;8.174;2023-10-13T19:40:16;6.07;;;3.63;;
1777;SDS011;71547;50.146;8.174;2023-10-13T19:42:43;6.73;;;3.73;;
1777;SDS011;71547;50.146;8.174;2023-10-13T19:45:12;5.63;;;3.93;;
1777;SDS011;71547;50.146;8.174;2023-10-13T19:47:42;8.67;;;3.67;;
1777;SDS011;71547;50.146;8.174;2023-10-13T19:50:11;3.83;;;3.33;;
1777;SDS011;71547;50.146;8.174;2023-10-13T19:52:40;5.30;;;4.40;;
1777;SDS011;71547;50.146;8.174;2023-10-13T19:55:08;4.50;;;4.10;;
1777;SDS011;71547;50.146;8.174;2023-10-13T19:57:43;7.00;;;3.57;;
1777;SDS011;71547;50.146;8.174;2023-10-13T20:00:12;4.83;;;4.10;;
1777;SDS011;71547;50.146;8.174;2023-10-13T20:02:47;8.87;;;3.93;;
1777;SDS011;71547;50.146;8.174;2023-10-13T20:05:18;5.10;;;4.20;;
1777;SDS011;71547;50.146;8.174;2023-10-13T20:07:49;7.07;;;3.33;;
1777;SDS011;71547;50.146;8.174;2023-10-13T20:10:16;5.33;;;3.90;;
1777;SDS011;71547;50.146;8.174;2023-10-13T20:12:44;8.23;;;3.80;;
1777;SDS011;71547;50.146;8.174;2023-10-13T20:15:13;4.00;;;3.70;;
1777;SDS011;71547;50.146;8.174;2023-10-13T20:17:42;5.17;;;4.23;;
1777;SDS011;71547;50.146;8.174;2023-10-13T20:20:10;9.70;;;4.20;;
1777;SDS011;71547;50.146;8.174;2023-10-13T20:22:38;5.03;;;4.33;;
1777;SDS011;71547;50.146;8.174;2023-10-13T20:25:06;5.37;;;4.20;;
1777;SDS011;71547;50.146;8.174;2023-10-13T20:27:34;4.80;;;4.40;;
1777;SDS011;71547;50.146;8.174;2023-10-13T20:30:01;4.53;;;4.13;;
1777;SDS011;71547;50.146;8.174;2023-10-13T20:32:36;6.63;;;4.10;;
1777;SDS011;71547;50.146;8.174;2023-10-13T20:35:03;5.13;;;4.47;;
1777;SDS011;71547;50.146;8.174;2023-10-13T20:37:31;15.00;;;4.23;;
1777;SDS011;71547;50.146;8.174;2023-10-13T20:40:00;6.23;;;4.20;;
1777;SDS011;71547;50.146;8.174;2023-10-13T20:42:47;5.97;;;4.50;;
1777;SDS011;71547;50.146;8.174;2023-10-13T20:45:18;5.07;;;4.60;;
1777;SDS011;71547;50.146;8.174;2023-10-13T20:47:51;9.33;;;4.20;;
1777;SDS011;71547;50.146;8.174;2023-10-13T20:50:20;8.80;;;4.27;;
1777;SDS011;71547;50.146;8.174;2023-10-13T20:52:49;11.00;;;4.50;;
1777;SDS011;71547;50.146;8.174;2023-10-13T20:55:16;7.37;;;4.20;;
1777;SDS011;71547;50.146;8.174;2023-10-13T20:57:44;8.97;;;4.80;;
1777;SDS011;71547;50.146;8.174;2023-10-13T21:00:16;5.67;;;3.93;;
1777;SDS011;71547;50.146;8.174;2023-10-13T21:02:54;6.60;;;4.77;;
1777;SDS011;71547;50.146;8.174;2023-10-13T21:05:22;6.20;;;4.63;;
1777;SDS011;71547;50.146;8.174;2023-10-13T21:07:50;6.13;;;4.50;;
1777;SDS011;71547;50.146;8.174;2023-10-13T21:10:20;11.63;;;5.07;;
1777;SDS011;71547;50.146;8.174;2023-10-13T21:12:48;6.10;;;4.77;;
1777;SDS011;71547;50.146;8.174;2023-10-13T21:15:16;8.20;;;4.50;;
1777;SDS011;71547;50.146;8.174;2023-10-13T21:17:44;7.53;;;4.60;;
1777;SDS011;71547;50.146;8.174;2023-10-13T21:20:15;6.00;;;4.60;;
1777;SDS011;71547;50.146;8.174;2023-10-13T21:22:43;4.70;;;4.30;;
1777;SDS011;71547;50.146;8.174;2023-10-13T21:25:11;7.10;;;4.67;;
1777;SDS011;71547;50.146;8.174;2023-10-13T21:27:50;8.07;;;4.80;;
1777;SDS011;71547;50.146;8.174;2023-10-13T21:30:19;6.57;;;4.97;;
1777;SDS011;71547;50.146;8.174;2023-10-13T21:32:51;7.80;;;4.83;;
1777;SDS011;71547;50.146;8.174;2023-10-13T21:35:20;9.87;;;5.00;;
1777;SDS011;71547;50.146;8.174;2023-10-13T21:37:49;8.70;;;5.90;;
1777;SDS011;71547;50.146;8.174;2023-10-13T21:40:17;10.20;;;5.93;;
1777;SDS011;71547;50.146;8.174;2023-10-13T21:42:45;6.10;;;5.37;;
1777;SDS011;71547;50.146;8.174;2023-10-13T21:45:20;7.20;;;5.60;;
1777;SDS011;71547;50.146;8.174;2023-10-13T21:47:47;7.40;;;5.50;;
1777;SDS011;71547;50.146;8.174;2023-10-13T21:50:14;9.00;;;5.13;;
1777;SDS011;71547;50.146;8.174;2023-10-13T21:52:48;10.50;;;5.03;;
1777;SDS011;71547;50.146;8.174;2023-10-13T21:55:17;7.80;;;5.10;;
1777;SDS011;71547;50.146;8.174;2023-10-13T21:57:45;7.30;;;5.00;;
1777;SDS011;71547;50.146;8.174;2023-10-13T22:00:17;7.40;;;5.53;;
1777;SDS011;71547;50.146;8.174;2023-10-13T22:02:53;8.13;;;5.03;;
1777;SDS011;71547;50.146;8.174;2023-10-13T22:05:23;9.83;;;5.10;;
1777;SDS011;71547;50.146;8.174;2023-10-13T22:07:51;6.83;;;4.60;;
1777;SDS011;71547;50.146;8.174;2023-10-13T22:10:20;9.20;;;5.17;;
1777;SDS011;71547;50.146;8.174;2023-10-13T22:12:47;11.37;;;5.60;;
1777;SDS011;71547;50.146;8.174;2023-10-13T22:15:17;7.63;;;4.90;;
1777;SDS011;71547;50.146;8.174;2023-10-13T22:17:47;10.30;;;4.77;;
1777;SDS011;71547;50.146;8.174;2023-10-13T22:20:16;9.73;;;5.13;;
1777;SDS011;71547;50.146;8.174;2023-10-13T22:22:48;8.33;;;5.07;;
1777;SDS011;71547;50.146;8.174;2023-10-13T22:25:19;5.63;;;5.13;;
1777;SDS011;71547;50.146;8.174;2023-10-13T22:27:47;8.23;;;5.10;;
1777;SDS011;71547;50.146;8.174;2023-10-13T22:30:16;7.33;;;4.67;;
1777;SDS011;71547;50.146;8.174;2023-10-13T22:33:04;13.70;;;5.97;;
1777;SDS011;71547;50.146;8.174;2023-10-13T22:35:32;7.43;;;5.00;;
1777;SDS011;71547;50.146;8.174;2023-10-13T22:38:01;8.97;;;4.70;;
1777;SDS011;71547;50.146;8.174;2023-10-13T22:40:33;9.47;;;5.10;;
1777;SDS011;71547;50.146;8.174;2023-10-13T22:43:01;13.47;;;5.83;;
1777;SDS011;71547;50.146;8.174;2023-10-13T22:45:29;8.23;;;4.87;;
1777;SDS011;71547;50.146;8.174;2023-10-13T22:47:57;5.70;;;5.17;;
1777;SDS011;71547;50.146;8.174;2023-10-13T22:50:25;10.60;;;4.70;;
1777;SDS011;71547;50.146;8.174;2023-10-13T22:52:53;7.53;;;5.23;;
1777;SDS011;71547;50.146;8.174;2023-10-13T22:55:24;9.97;;;4.73;;
1777;SDS011;71547;50.146;8.174;2023-10-13T22:57:52;4.60;;;4.20;;
1777;SDS011;71547;50.146;8.174;2023-10-13T23:00:22;8.67;;;5.33;;
1777;SDS011;71547;50.146;8.174;2023-10-13T23:03:11;12.20;;;5.20;;
1777;SDS011;71547;50.146;8.174;2023-10-13T23:05:45;12.53;;;5.30;;
1777;SDS011;71547;50.146;8.174;2023-10-13T23:08:18;10.07;;;5.70;;
1777;SDS011;71547;50.146;8.174;2023-10-13T23:10:50;6.97;;;5.83;;
1777;SDS011;71547;50.146;8.174;2023-10-13T23:13:18;8.93;;;5.00;;
1777;SDS011;71547;50.146;8.174;2023-10-13T23:15:47;6.97;;;4.63;;
1777;SDS011;71547;50.146;8.174;2023-10-13T23:18:16;6.27;;;4.43;;
1777;SDS011;71547;50.146;8.174;2023-10-13T23:20:45;6.73;;;4.67;;
1777;SDS011;71547;50.146;8.174;2023-10-13T23:23:17;6.37;;;4.80;;
1777;SDS011;71547;50.146;8.174;2023-10-13T23:25:45;5.53;;;5.03;;
1777;SDS011;71547;50.146;8.174;2023-10-13T23:28:14;9.63;;;5.67;;
1777;SDS011;71547;50.146;8.174;2023-10-13T23:30:55;8.20;;;5.40;;
1777;SDS011;71547;50.146;8.174;2023-10-13T23:33:23;5.07;;;4.50;;
1777;SDS011;71547;50.146;8.174;2023-10-13T23:35:51;6.67;;;5.10;;
1777;SDS011;71547;50.146;8.174;2023-10-13T23:38:20;7.10;;;5.03;;
1777;SDS011;71547;50.146;8.174;2023-10-13T23:40:55;9.10;;;5.37;;
1777;SDS011;71547;50.146;8.174;2023-10-13T23:43:25;6.90;;;5.40;;
1777;SDS011;71547;50.146;8.174;2023-10-13T23:45:53;14.83;;;5.10;;
1777;SDS011;71547;50.146;8.174;2023-10-13T23:48:26;7.70;;;5.43;;
1777;SDS011;71547;50.146;8.174;2023-10-13T23:51:00;6.40;;;5.53;;
1777;SDS011;71547;50.146;8.174;2023-10-13T23:53:31;7.23;;;5.47;;
1777;SDS011;71547;50.146;8.174;2023-10-13T23:56:01;6.13;;;5.00;;
1777;SDS011;71547;50.146;8.174;2023-10-13T23:58:37;9.80;;;5.70;;
